sensor_id;sensor_type;location;lat;lon;timestamp;temperature;humidity
17813;DHT22;9030;50.792;8.320;2023-07-13T00:02:17;14.90;99.90
17813;DHT22;9030;50.792;8.320;2023-07-13T00:04:44;14.90;99.90
17813;DHT22;9030;50.792;8.320;2023-07-13T00:07:10;14.80;99.90
17813;DHT22;9030;50.792;8.320;2023-07-13T00:09:39;14.80;99.90
17813;DHT22;9030;50.792;8.320;2023-07-13T00:12:22;14.70;99.90
17813;DHT22;9030;50.792;8.320;2023-07-13T00:14:49;14.70;99.90
17813;DHT22;9030;50.792;8.320;2023-07-13T00:17:17;14.70;99.90
17813;DHT22;9030;50.792;8.320;2023-07-13T00:19:43;14.70;99.90
17813;DHT22;9030;50.792;8.320;2023-07-13T00:22:11;14.80;99.90
17813;DHT22;9030;50.792;8.320;2023-07-13T00:24:37;14.70;99.90
17813;DHT22;9030;50.792;8.320;2023-07-13T00:27:07;14.70;99.90
17813;DHT22;9030;50.792;8.320;2023-07-13T00:29:34;14.60;99.90
17813;DHT22;9030;50.792;8.320;2023-07-13T00:32:01;14.50;99.90
17813;DHT22;9030;50.792;8.320;2023-07-13T00:34:29;14.40;99.90
17813;DHT22;9030;50.792;8.320;2023-07-13T00:36:56;14.50;99.90
17813;DHT22;9030;50.792;8.320;2023-07-13T00:39:23;14.40;99.90
17813;DHT22;9030;50.792;8.320;2023-07-13T00:41:50;14.40;99.90
17813;DHT22;9030;50.792;8.320;2023-07-13T00:44:18;14.40;99.90
17813;DHT22;9030;50.792;8.320;2023-07-13T00:46:46;14.30;99.90
17813;DHT22;9030;50.792;8.320;2023-07-13T00:49:15;14.20;99.90
17813;DHT22;9030;50.792;8.320;2023-07-13T00:51:46;14.30;99.90
17813;DHT22;9030;50.792;8.320;2023-07-13T00:54:18;14.20;99.90
17813;DHT22;9030;50.792;8.320;2023-07-13T00:56:47;14.10;99.90
17813;DHT22;9030;50.792;8.320;2023-07-13T00:59:15;14.10;99.90
17813;DHT22;9030;50.792;8.320;2023-07-13T01:01:44;14.10;99.90
17813;DHT22;9030;50.792;8.320;2023-07-13T01:04:11;14.10;99.90
17813;DHT22;9030;50.792;8.320;2023-07-13T01:06:40;14.10;99.90
17813;DHT22;9030;50.792;8.320;2023-07-13T01:09:11;13.90;99.90
17813;DHT22;9030;50.792;8.320;2023-07-13T01:11:38;13.80;99.90
17813;DHT22;9030;50.792;8.320;2023-07-13T01:14:05;13.80;99.90
17813;DHT22;9030;50.792;8.320;2023-07-13T01:16:34;13.70;99.90
17813;DHT22;9030;50.792;8.320;2023-07-13T01:19:05;13.60;99.90
17813;DHT22;9030;50.792;8.320;2023-07-13T01:21:33;13.50;99.90
17813;DHT22;9030;50.792;8.320;2023-07-13T01:24:00;13.50;99.90
17813;DHT22;9030;50.792;8.320;2023-07-13T01:26:27;13.50;99.90
17813;DHT22;9030;50.792;8.320;2023-07-13T01:28:54;13.30;99.90
17813;DHT22;9030;50.792;8.320;2023-07-13T01:31:21;13.20;99.90
17813;DHT22;9030;50.792;8.320;2023-07-13T01:33:48;13.10;99.90
17813;DHT22;9030;50.792;8.320;2023-07-13T01:36:15;13.00;99.90
17813;DHT22;9030;50.792;8.320;2023-07-13T01:38:43;12.90;99.90
17813;DHT22;9030;50.792;8.320;2023-07-13T01:41:10;12.90;99.90
17813;DHT22;9030;50.792;8.320;2023-07-13T01:43:36;12.80;99.90
17813;DHT22;9030;50.792;8.320;2023-07-13T01:46:03;12.80;99.90
17813;DHT22;9030;50.792;8.320;2023-07-13T01:48:29;12.70;99.90
17813;DHT22;9030;50.792;8.320;2023-07-13T01:50:56;12.70;99.90
17813;DHT22;9030;50.792;8.320;2023-07-13T01:53:23;12.70;99.90
17813;DHT22;9030;50.792;8.320;2023-07-13T01:55:50;12.60;99.90
17813;DHT22;9030;50.792;8.320;2023-07-13T01:58:17;12.60;99.90
17813;DHT22;9030;50.792;8.320;2023-07-13T02:00:48;12.50;99.90
17813;DHT22;9030;50.792;8.320;2023-07-13T02:03:25;12.50;99.90
17813;DHT22;9030;50.792;8.320;2023-07-13T02:05:53;12.40;99.90
17813;DHT22;9030;50.792;8.320;2023-07-13T02:08:21;12.30;99.90
17813;DHT22;9030;50.792;8.320;2023-07-13T02:10:53;12.20;99.90
17813;DHT22;9030;50.792;8.320;2023-07-13T02:13:23;12.10;99.90
17813;DHT22;9030;50.792;8.320;2023-07-13T02:15:52;12.10;99.90
17813;DHT22;9030;50.792;8.320;2023-07-13T02:18:31;12.10;99.90
17813;DHT22;9030;50.792;8.320;2023-07-13T02:21:00;12.00;99.90
17813;DHT22;9030;50.792;8.320;2023-07-13T02:23:55;11.90;99.90
17813;DHT22;9030;50.792;8.320;2023-07-13T02:33:24;11.70;99.90
17813;DHT22;9030;50.792;8.320;2023-07-13T02:35:58;11.70;99.90
17813;DHT22;9030;50.792;8.320;2023-07-13T02:38:45;11.70;99.90
17813;DHT22;9030;50.792;8.320;2023-07-13T02:41:35;11.70;99.90
17813;DHT22;9030;50.792;8.320;2023-07-13T02:44:19;11.70;99.90
17813;DHT22;9030;50.792;8.320;2023-07-13T02:47:02;11.60;99.90
17813;DHT22;9030;50.792;8.320;2023-07-13T02:49:47;11.50;99.90
17813;DHT22;9030;50.792;8.320;2023-07-13T02:52:46;11.50;99.90
17813;DHT22;9030;50.792;8.320;2023-07-13T02:55:30;11.40;99.90
17813;DHT22;9030;50.792;8.320;2023-07-13T02:58:13;11.30;99.90
17813;DHT22;9030;50.792;8.320;2023-07-13T03:01:05;11.30;99.90
17813;DHT22;9030;50.792;8.320;2023-07-13T03:03:40;11.30;99.90
17813;DHT22;9030;50.792;8.320;2023-07-13T03:06:22;11.30;99.90
17813;DHT22;9030;50.792;8.320;2023-07-13T03:09:10;11.30;99.90
17813;DHT22;9030;50.792;8.320;2023-07-13T03:18:36;11.20;99.90
17813;DHT22;9030;50.792;8.320;2023-07-13T03:21:36;11.10;99.90
17813;DHT22;9030;50.792;8.320;2023-07-13T03:24:33;11.10;99.90
17813;DHT22;9030;50.792;8.320;2023-07-13T03:27:22;11.10;99.90
17813;DHT22;9030;50.792;8.320;2023-07-13T03:30:07;11.20;99.90
17813;DHT22;9030;50.792;8.320;2023-07-13T03:33:05;11.20;99.90
17813;DHT22;9030;50.792;8.320;2023-07-13T03:36:14;11.20;99.90
17813;DHT22;9030;50.792;8.320;2023-07-13T03:39:05;11.20;99.90
17813;DHT22;9030;50.792;8.320;2023-07-13T03:41:54;11.20;99.90
17813;DHT22;9030;50.792;8.320;2023-07-13T03:44:28;11.20;99.90
17813;DHT22;9030;50.792;8.320;2023-07-13T03:47:06;11.20;99.90
17813;DHT22;9030;50.792;8.320;2023-07-13T03:49:52;11.20;99.90
17813;DHT22;9030;50.792;8.320;2023-07-13T03:52:44;11.10;99.90
17813;DHT22;9030;50.792;8.320;2023-07-13T04:02:03;11.10;99.90
17813;DHT22;9030;50.792;8.320;2023-07-13T04:04:41;11.00;99.90
17813;DHT22;9030;50.792;8.320;2023-07-13T04:07:25;11.00;99.90
17813;DHT22;9030;50.792;8.320;2023-07-13T04:10:14;11.10;99.90
17813;DHT22;9030;50.792;8.320;2023-07-13T04:13:21;11.10;99.90
17813;DHT22;9030;50.792;8.320;2023-07-13T04:16:32;11.30;99.90
17813;DHT22;9030;50.792;8.320;2023-07-13T04:22:55;11.10;99.90
17813;DHT22;9030;50.792;8.320;2023-07-13T04:25:42;11.20;99.90
17813;DHT22;9030;50.792;8.320;2023-07-13T04:28:27;11.20;99.90
17813;DHT22;9030;50.792;8.320;2023-07-13T04:30:54;11.30;99.90
17813;DHT22;9030;50.792;8.320;2023-07-13T04:33:21;11.40;99.90
17813;DHT22;9030;50.792;8.320;2023-07-13T04:35:49;11.50;99.90
17813;DHT22;9030;50.792;8.320;2023-07-13T04:38:17;11.40;99.90
17813;DHT22;9030;50.792;8.320;2023-07-13T04:40:45;11.50;99.90
17813;DHT22;9030;50.792;8.320;2023-07-13T04:43:12;11.70;99.90
17813;DHT22;9030;50.792;8.320;2023-07-13T04:45:38;11.80;99.90
17813;DHT22;9030;50.792;8.320;2023-07-13T04:48:05;12.00;99.90
17813;DHT22;9030;50.792;8.320;2023-07-13T04:50:32;12.10;99.90
17813;DHT22;9030;50.792;8.320;2023-07-13T04:52:58;12.40;99.90
17813;DHT22;9030;50.792;8.320;2023-07-13T04:55:26;12.70;99.90
17813;DHT22;9030;50.792;8.320;2023-07-13T04:57:56;12.70;99.90
17813;DHT22;9030;50.792;8.320;2023-07-13T05:00:24;12.80;99.90
17813;DHT22;9030;50.792;8.320;2023-07-13T05:02:51;12.80;99.90
17813;DHT22;9030;50.792;8.320;2023-07-13T05:05:17;13.00;99.90
17813;DHT22;9030;50.792;8.320;2023-07-13T05:07:44;13.00;99.90
17813;DHT22;9030;50.792;8.320;2023-07-13T05:10:11;13.30;99.90
17813;DHT22;9030;50.792;8.320;2023-07-13T05:12:39;13.80;99.90
17813;DHT22;9030;50.792;8.320;2023-07-13T05:15:06;13.90;99.90
17813;DHT22;9030;50.792;8.320;2023-07-13T05:17:33;14.00;99.90
17813;DHT22;9030;50.792;8.320;2023-07-13T05:20:00;14.10;99.90
17813;DHT22;9030;50.792;8.320;2023-07-13T05:22:26;14.60;99.90
17813;DHT22;9030;50.792;8.320;2023-07-13T05:24:53;15.30;99.90
17813;DHT22;9030;50.792;8.320;2023-07-13T05:27:20;15.80;99.90
17813;DHT22;9030;50.792;8.320;2023-07-13T05:29:48;16.10;99.90
17813;DHT22;9030;50.792;8.320;2023-07-13T05:32:15;16.60;99.90
17813;DHT22;9030;50.792;8.320;2023-07-13T05:34:41;17.00;99.90
17813;DHT22;9030;50.792;8.320;2023-07-13T05:37:08;17.20;99.90
17813;DHT22;9030;50.792;8.320;2023-07-13T05:39:35;17.40;99.90
17813;DHT22;9030;50.792;8.320;2023-07-13T05:42:02;17.50;99.90
17813;DHT22;9030;50.792;8.320;2023-07-13T05:44:29;17.70;99.90
17813;DHT22;9030;50.792;8.320;2023-07-13T05:46:57;18.00;99.90
17813;DHT22;9030;50.792;8.320;2023-07-13T05:49:23;18.10;99.90
17813;DHT22;9030;50.792;8.320;2023-07-13T05:51:50;18.10;99.90
17813;DHT22;9030;50.792;8.320;2023-07-13T05:54:16;18.20;99.90
17813;DHT22;9030;50.792;8.320;2023-07-13T05:56:43;18.30;99.90
17813;DHT22;9030;50.792;8.320;2023-07-13T05:59:10;18.50;99.90
17813;DHT22;9030;50.792;8.320;2023-07-13T06:01:36;18.30;99.90
17813;DHT22;9030;50.792;8.320;2023-07-13T06:04:04;18.30;99.90
17813;DHT22;9030;50.792;8.320;2023-07-13T06:06:31;18.50;99.90
17813;DHT22;9030;50.792;8.320;2023-07-13T06:08:57;18.40;99.90
17813;DHT22;9030;50.792;8.320;2023-07-13T06:11:26;18.50;99.90
17813;DHT22;9030;50.792;8.320;2023-07-13T06:13:55;18.70;99.90
17813;DHT22;9030;50.792;8.320;2023-07-13T06:16:23;18.80;99.90
17813;DHT22;9030;50.792;8.320;2023-07-13T06:18:49;19.00;99.90
17813;DHT22;9030;50.792;8.320;2023-07-13T06:21:21;19.10;99.90
17813;DHT22;9030;50.792;8.320;2023-07-13T06:23:49;19.60;99.90
17813;DHT22;9030;50.792;8.320;2023-07-13T06:26:17;19.80;99.90
17813;DHT22;9030;50.792;8.320;2023-07-13T06:28:44;19.20;99.90
17813;DHT22;9030;50.792;8.320;2023-07-13T06:31:13;18.70;99.90
17813;DHT22;9030;50.792;8.320;2023-07-13T06:33:40;18.60;99.90
17813;DHT22;9030;50.792;8.320;2023-07-13T06:36:08;19.00;99.90
17813;DHT22;9030;50.792;8.320;2023-07-13T06:38:36;19.30;99.90
17813;DHT22;9030;50.792;8.320;2023-07-13T06:41:04;19.20;99.90
17813;DHT22;9030;50.792;8.320;2023-07-13T06:43:30;19.60;99.90
17813;DHT22;9030;50.792;8.320;2023-07-13T06:45:58;20.00;99.90
17813;DHT22;9030;50.792;8.320;2023-07-13T06:48:25;20.30;99.90
17813;DHT22;9030;50.792;8.320;2023-07-13T06:50:51;20.10;99.90
17813;DHT22;9030;50.792;8.320;2023-07-13T06:53:19;20.30;99.90
17813;DHT22;9030;50.792;8.320;2023-07-13T06:55:47;20.10;99.90
17813;DHT22;9030;50.792;8.320;2023-07-13T06:58:15;20.40;99.90
17813;DHT22;9030;50.792;8.320;2023-07-13T07:00:42;20.00;99.90
17813;DHT22;9030;50.792;8.320;2023-07-13T07:03:08;20.20;99.90
17813;DHT22;9030;50.792;8.320;2023-07-13T07:05:35;20.20;99.90
17813;DHT22;9030;50.792;8.320;2023-07-13T07:08:01;19.70;99.90
17813;DHT22;9030;50.792;8.320;2023-07-13T07:10:29;19.60;99.90
17813;DHT22;9030;50.792;8.320;2023-07-13T07:12:58;19.40;99.90
17813;DHT22;9030;50.792;8.320;2023-07-13T07:15:25;19.20;99.90
17813;DHT22;9030;50.792;8.320;2023-07-13T07:17:52;19.60;99.90
17813;DHT22;9030;50.792;8.320;2023-07-13T07:20:18;19.90;99.90
17813;DHT22;9030;50.792;8.320;2023-07-13T07:22:45;20.10;99.90
17813;DHT22;9030;50.792;8.320;2023-07-13T07:25:12;20.60;99.90
17813;DHT22;9030;50.792;8.320;2023-07-13T07:27:39;20.70;99.90
17813;DHT22;9030;50.792;8.320;2023-07-13T07:30:08;21.10;99.90
17813;DHT22;9030;50.792;8.320;2023-07-13T07:32:35;21.30;99.90
17813;DHT22;9030;50.792;8.320;2023-07-13T07:35:01;21.90;99.90
17813;DHT22;9030;50.792;8.320;2023-07-13T07:37:28;21.50;99.90
17813;DHT22;9030;50.792;8.320;2023-07-13T07:39:55;20.90;99.90
17813;DHT22;9030;50.792;8.320;2023-07-13T07:42:21;20.60;99.90
17813;DHT22;9030;50.792;8.320;2023-07-13T07:44:48;21.10;99.90
17813;DHT22;9030;50.792;8.320;2023-07-13T07:47:16;21.30;99.90
17813;DHT22;9030;50.792;8.320;2023-07-13T07:49:43;21.90;99.90
17813;DHT22;9030;50.792;8.320;2023-07-13T07:52:09;22.00;99.90
17813;DHT22;9030;50.792;8.320;2023-07-13T07:54:36;21.60;99.90
17813;DHT22;9030;50.792;8.320;2023-07-13T07:57:03;21.40;99.90
17813;DHT22;9030;50.792;8.320;2023-07-13T07:59:30;21.30;99.90
17813;DHT22;9030;50.792;8.320;2023-07-13T08:01:56;22.10;99.90
17813;DHT22;9030;50.792;8.320;2023-07-13T08:04:24;22.60;99.90
17813;DHT22;9030;50.792;8.320;2023-07-13T08:06:51;22.80;99.90
17813;DHT22;9030;50.792;8.320;2023-07-13T08:09:17;22.90;99.90
17813;DHT22;9030;50.792;8.320;2023-07-13T08:11:44;23.00;99.90
17813;DHT22;9030;50.792;8.320;2023-07-13T08:14:11;22.60;99.90
17813;DHT22;9030;50.792;8.320;2023-07-13T08:16:37;23.00;99.90
17813;DHT22;9030;50.792;8.320;2023-07-13T08:19:04;22.50;99.90
17813;DHT22;9030;50.792;8.320;2023-07-13T08:21:32;22.40;99.90
17813;DHT22;9030;50.792;8.320;2023-07-13T08:23:59;22.70;99.90
17813;DHT22;9030;50.792;8.320;2023-07-13T08:26:26;22.90;99.90
17813;DHT22;9030;50.792;8.320;2023-07-13T08:28:52;22.00;99.90
17813;DHT22;9030;50.792;8.320;2023-07-13T08:31:19;21.50;99.90
17813;DHT22;9030;50.792;8.320;2023-07-13T08:33:46;22.30;99.90
17813;DHT22;9030;50.792;8.320;2023-07-13T08:36:12;23.00;99.90
17813;DHT22;9030;50.792;8.320;2023-07-13T08:38:40;21.70;99.90
17813;DHT22;9030;50.792;8.320;2023-07-13T08:41:12;21.30;99.90
17813;DHT22;9030;50.792;8.320;2023-07-13T08:43:40;21.50;99.90
17813;DHT22;9030;50.792;8.320;2023-07-13T08:46:11;22.10;99.90
17813;DHT22;9030;50.792;8.320;2023-07-13T08:48:41;22.60;99.90
17813;DHT22;9030;50.792;8.320;2023-07-13T08:51:16;22.70;99.90
17813;DHT22;9030;50.792;8.320;2023-07-13T08:53:49;23.70;99.90
17813;DHT22;9030;50.792;8.320;2023-07-13T08:56:19;24.40;99.90
17813;DHT22;9030;50.792;8.320;2023-07-13T08:58:49;24.20;99.90
17813;DHT22;9030;50.792;8.320;2023-07-13T09:01:24;24.10;99.90
17813;DHT22;9030;50.792;8.320;2023-07-13T09:03:59;23.20;99.90
17813;DHT22;9030;50.792;8.320;2023-07-13T09:06:31;22.90;99.90
17813;DHT22;9030;50.792;8.320;2023-07-13T09:09:04;23.20;99.90
17813;DHT22;9030;50.792;8.320;2023-07-13T09:11:42;23.40;99.90
17813;DHT22;9030;50.792;8.320;2023-07-13T09:14:35;23.50;99.90
17813;DHT22;9030;50.792;8.320;2023-07-13T09:17:04;24.00;99.90
17813;DHT22;9030;50.792;8.320;2023-07-13T09:19:32;22.60;99.90
17813;DHT22;9030;50.792;8.320;2023-07-13T09:22:02;22.30;99.90
17813;DHT22;9030;50.792;8.320;2023-07-13T09:24:36;22.00;99.90
17813;DHT22;9030;50.792;8.320;2023-07-13T09:27:12;21.70;99.90
17813;DHT22;9030;50.792;8.320;2023-07-13T09:29:47;22.40;99.90
17813;DHT22;9030;50.792;8.320;2023-07-13T09:32:17;21.80;99.90
17813;DHT22;9030;50.792;8.320;2023-07-13T09:34:50;22.00;99.90
17813;DHT22;9030;50.792;8.320;2023-07-13T09:37:18;23.20;99.90
17813;DHT22;9030;50.792;8.320;2023-07-13T09:39:49;23.40;99.90
17813;DHT22;9030;50.792;8.320;2023-07-13T09:42:19;23.20;99.90
17813;DHT22;9030;50.792;8.320;2023-07-13T09:44:53;22.80;99.90
17813;DHT22;9030;50.792;8.320;2023-07-13T09:47:22;23.00;99.90
17813;DHT22;9030;50.792;8.320;2023-07-13T09:49:55;22.40;99.90
17813;DHT22;9030;50.792;8.320;2023-07-13T09:52:24;21.70;99.90
17813;DHT22;9030;50.792;8.320;2023-07-13T09:54:52;21.90;99.90
17813;DHT22;9030;50.792;8.320;2023-07-13T09:57:25;21.60;99.90
17813;DHT22;9030;50.792;8.320;2023-07-13T09:59:54;21.30;99.90
17813;DHT22;9030;50.792;8.320;2023-07-13T10:02:27;21.40;99.90
17813;DHT22;9030;50.792;8.320;2023-07-13T10:04:59;21.30;99.90
17813;DHT22;9030;50.792;8.320;2023-07-13T10:07:28;21.50;99.90
17813;DHT22;9030;50.792;8.320;2023-07-13T10:09:58;21.50;99.90
17813;DHT22;9030;50.792;8.320;2023-07-13T10:12:28;21.80;99.90
17813;DHT22;9030;50.792;8.320;2023-07-13T10:14:57;22.60;99.90
17813;DHT22;9030;50.792;8.320;2023-07-13T10:17:27;23.50;99.90
17813;DHT22;9030;50.792;8.320;2023-07-13T10:19:58;23.30;99.90
17813;DHT22;9030;50.792;8.320;2023-07-13T10:22:29;22.40;99.90
17813;DHT22;9030;50.792;8.320;2023-07-13T10:24:59;23.10;99.90
17813;DHT22;9030;50.792;8.320;2023-07-13T10:27:32;23.20;99.90
17813;DHT22;9030;50.792;8.320;2023-07-13T10:30:04;22.60;99.90
17813;DHT22;9030;50.792;8.320;2023-07-13T10:32:34;22.30;99.90
17813;DHT22;9030;50.792;8.320;2023-07-13T10:35:01;22.40;99.90
17813;DHT22;9030;50.792;8.320;2023-07-13T10:37:33;23.70;99.90
17813;DHT22;9030;50.792;8.320;2023-07-13T10:40:05;24.00;99.90
17813;DHT22;9030;50.792;8.320;2023-07-13T10:42:37;23.60;99.90
17813;DHT22;9030;50.792;8.320;2023-07-13T10:45:13;23.20;99.90
17813;DHT22;9030;50.792;8.320;2023-07-13T10:47:40;22.70;99.90
17813;DHT22;9030;50.792;8.320;2023-07-13T10:50:12;23.80;99.90
17813;DHT22;9030;50.792;8.320;2023-07-13T10:52:44;24.30;99.90
17813;DHT22;9030;50.792;8.320;2023-07-13T10:55:34;23.80;99.90
17813;DHT22;9030;50.792;8.320;2023-07-13T10:58:03;23.50;99.90
17813;DHT22;9030;50.792;8.320;2023-07-13T11:00:46;23.00;99.90
17813;DHT22;9030;50.792;8.320;2023-07-13T11:03:15;21.90;99.90
17813;DHT22;9030;50.792;8.320;2023-07-13T11:05:43;21.80;99.90
17813;DHT22;9030;50.792;8.320;2023-07-13T11:08:19;21.80;99.90
17813;DHT22;9030;50.792;8.320;2023-07-13T11:10:52;21.80;99.90
17813;DHT22;9030;50.792;8.320;2023-07-13T11:16:38;22.10;99.90
17813;DHT22;9030;50.792;8.320;2023-07-13T11:19:39;22.80;99.90
17813;DHT22;9030;50.792;8.320;2023-07-13T11:22:21;21.90;99.90
17813;DHT22;9030;50.792;8.320;2023-07-13T11:24:57;21.60;99.90
17813;DHT22;9030;50.792;8.320;2023-07-13T11:27:43;21.60;99.90
17813;DHT22;9030;50.792;8.320;2023-07-13T11:30:35;21.70;99.90
17813;DHT22;9030;50.792;8.320;2023-07-13T11:33:04;22.20;99.90
17813;DHT22;9030;50.792;8.320;2023-07-13T11:35:36;21.90;99.90
17813;DHT22;9030;50.792;8.320;2023-07-13T11:38:12;21.80;99.90
17813;DHT22;9030;50.792;8.320;2023-07-13T11:40:40;21.80;99.90
17813;DHT22;9030;50.792;8.320;2023-07-13T11:43:12;22.10;99.90
17813;DHT22;9030;50.792;8.320;2023-07-13T11:45:40;22.60;99.90
17813;DHT22;9030;50.792;8.320;2023-07-13T11:48:18;23.00;99.90
17813;DHT22;9030;50.792;8.320;2023-07-13T11:50:51;23.20;99.90
17813;DHT22;9030;50.792;8.320;2023-07-13T11:53:19;23.10;99.90
17813;DHT22;9030;50.792;8.320;2023-07-13T11:55:46;23.10;99.90
17813;DHT22;9030;50.792;8.320;2023-07-13T11:58:19;23.10;99.90
17813;DHT22;9030;50.792;8.320;2023-07-13T12:00:47;23.20;99.90
17813;DHT22;9030;50.792;8.320;2023-07-13T12:03:17;22.70;99.90
17813;DHT22;9030;50.792;8.320;2023-07-13T12:05:55;22.40;99.90
17813;DHT22;9030;50.792;8.320;2023-07-13T12:08:23;22.10;99.90
17813;DHT22;9030;50.792;8.320;2023-07-13T12:10:57;22.60;99.90
17813;DHT22;9030;50.792;8.320;2023-07-13T12:13:26;22.80;99.90
17813;DHT22;9030;50.792;8.320;2023-07-13T12:15:53;22.70;99.90
17813;DHT22;9030;50.792;8.320;2023-07-13T12:18:21;23.50;99.90
17813;DHT22;9030;50.792;8.320;2023-07-13T12:20:50;24.10;99.90
17813;DHT22;9030;50.792;8.320;2023-07-13T12:23:24;23.90;99.90
17813;DHT22;9030;50.792;8.320;2023-07-13T12:25:52;23.70;99.90
17813;DHT22;9030;50.792;8.320;2023-07-13T12:28:28;23.30;99.90
17813;DHT22;9030;50.792;8.320;2023-07-13T12:31:00;22.90;99.90
17813;DHT22;9030;50.792;8.320;2023-07-13T12:33:29;22.40;99.90
17813;DHT22;9030;50.792;8.320;2023-07-13T12:35:57;22.30;99.90
17813;DHT22;9030;50.792;8.320;2023-07-13T12:38:24;22.60;99.90
17813;DHT22;9030;50.792;8.320;2023-07-13T12:40:52;22.20;99.90
17813;DHT22;9030;50.792;8.320;2023-07-13T12:43:20;22.40;99.90
17813;DHT22;9030;50.792;8.320;2023-07-13T12:46:01;22.40;99.90
17813;DHT22;9030;50.792;8.320;2023-07-13T12:48:28;22.70;99.90
17813;DHT22;9030;50.792;8.320;2023-07-13T12:50:56;23.10;99.90
17813;DHT22;9030;50.792;8.320;2023-07-13T12:53:29;23.70;99.90
17813;DHT22;9030;50.792;8.320;2023-07-13T12:56:00;23.70;99.90
17813;DHT22;9030;50.792;8.320;2023-07-13T12:58:30;23.50;99.90
17813;DHT22;9030;50.792;8.320;2023-07-13T13:01:01;23.80;99.90
17813;DHT22;9030;50.792;8.320;2023-07-13T13:03:30;23.50;99.90
17813;DHT22;9030;50.792;8.320;2023-07-13T13:05:59;23.10;99.90
17813;DHT22;9030;50.792;8.320;2023-07-13T13:08:29;22.90;99.90
17813;DHT22;9030;50.792;8.320;2023-07-13T13:10:55;22.60;99.90
17813;DHT22;9030;50.792;8.320;2023-07-13T13:13:22;22.40;99.90
17813;DHT22;9030;50.792;8.320;2023-07-13T13:15:49;22.20;99.90
17813;DHT22;9030;50.792;8.320;2023-07-13T13:18:19;21.90;99.90
17813;DHT22;9030;50.792;8.320;2023-07-13T13:20:47;21.70;99.90
17813;DHT22;9030;50.792;8.320;2023-07-13T13:23:15;21.70;99.90
17813;DHT22;9030;50.792;8.320;2023-07-13T13:25:43;22.00;99.90
17813;DHT22;9030;50.792;8.320;2023-07-13T13:28:16;22.50;99.90
17813;DHT22;9030;50.792;8.320;2023-07-13T13:30:43;22.80;99.90
17813;DHT22;9030;50.792;8.320;2023-07-13T13:33:12;22.30;99.90
17813;DHT22;9030;50.792;8.320;2023-07-13T13:35:41;22.10;99.90
17813;DHT22;9030;50.792;8.320;2023-07-13T13:38:12;21.90;99.90
17813;DHT22;9030;50.792;8.320;2023-07-13T13:40:39;22.00;99.90
17813;DHT22;9030;50.792;8.320;2023-07-13T13:43:14;22.00;99.90
17813;DHT22;9030;50.792;8.320;2023-07-13T13:45:42;22.00;99.90
17813;DHT22;9030;50.792;8.320;2023-07-13T13:48:14;22.40;99.90
17813;DHT22;9030;50.792;8.320;2023-07-13T13:50:42;23.10;99.90
17813;DHT22;9030;50.792;8.320;2023-07-13T13:53:11;23.50;99.90
17813;DHT22;9030;50.792;8.320;2023-07-13T13:55:38;23.20;99.90
17813;DHT22;9030;50.792;8.320;2023-07-13T13:58:07;22.90;99.90
17813;DHT22;9030;50.792;8.320;2023-07-13T14:00:34;23.10;99.90
17813;DHT22;9030;50.792;8.320;2023-07-13T14:03:03;23.00;99.90
17813;DHT22;9030;50.792;8.320;2023-07-13T14:05:31;23.10;99.90
17813;DHT22;9030;50.792;8.320;2023-07-13T14:07:59;23.40;99.90
17813;DHT22;9030;50.792;8.320;2023-07-13T14:10:26;23.80;99.90
17813;DHT22;9030;50.792;8.320;2023-07-13T14:12:54;23.60;99.90
17813;DHT22;9030;50.792;8.320;2023-07-13T14:15:23;23.60;99.90
17813;DHT22;9030;50.792;8.320;2023-07-13T14:17:50;23.90;99.90
17813;DHT22;9030;50.792;8.320;2023-07-13T14:20:18;23.60;99.90
17813;DHT22;9030;50.792;8.320;2023-07-13T14:22:46;23.50;99.90
17813;DHT22;9030;50.792;8.320;2023-07-13T14:25:16;23.60;99.90
17813;DHT22;9030;50.792;8.320;2023-07-13T14:27:44;23.40;99.90
17813;DHT22;9030;50.792;8.320;2023-07-13T14:30:16;23.30;99.90
17813;DHT22;9030;50.792;8.320;2023-07-13T14:32:43;23.30;99.90
17813;DHT22;9030;50.792;8.320;2023-07-13T14:35:11;23.40;99.90
17813;DHT22;9030;50.792;8.320;2023-07-13T14:37:38;23.80;99.90
17813;DHT22;9030;50.792;8.320;2023-07-13T14:40:13;23.80;99.90
17813;DHT22;9030;50.792;8.320;2023-07-13T14:42:41;23.70;99.90
17813;DHT22;9030;50.792;8.320;2023-07-13T14:45:13;23.50;99.90
17813;DHT22;9030;50.792;8.320;2023-07-13T14:47:40;23.50;99.90
17813;DHT22;9030;50.792;8.320;2023-07-13T14:50:14;23.80;99.90
17813;DHT22;9030;50.792;8.320;2023-07-13T14:52:42;24.10;99.90
17813;DHT22;9030;50.792;8.320;2023-07-13T14:55:10;24.70;99.90
17813;DHT22;9030;50.792;8.320;2023-07-13T14:57:37;25.20;99.90
17813;DHT22;9030;50.792;8.320;2023-07-13T15:00:13;25.90;99.90
17813;DHT22;9030;50.792;8.320;2023-07-13T15:02:41;25.40;99.90
17813;DHT22;9030;50.792;8.320;2023-07-13T15:05:14;25.30;99.90
17813;DHT22;9030;50.792;8.320;2023-07-13T15:07:41;25.30;99.90
17813;DHT22;9030;50.792;8.320;2023-07-13T15:10:13;25.60;99.90
17813;DHT22;9030;50.792;8.320;2023-07-13T15:12:40;25.40;99.90
17813;DHT22;9030;50.792;8.320;2023-07-13T15:15:09;25.20;99.90
17813;DHT22;9030;50.792;8.320;2023-07-13T15:17:37;24.90;99.90
17813;DHT22;9030;50.792;8.320;2023-07-13T15:20:11;24.90;99.90
17813;DHT22;9030;50.792;8.320;2023-07-13T15:22:39;25.40;99.90
17813;DHT22;9030;50.792;8.320;2023-07-13T15:25:13;25.90;99.90
17813;DHT22;9030;50.792;8.320;2023-07-13T15:27:41;26.70;99.90
17813;DHT22;9030;50.792;8.320;2023-07-13T15:30:10;26.60;99.90
17813;DHT22;9030;50.792;8.320;2023-07-13T15:32:37;26.20;99.90
17813;DHT22;9030;50.792;8.320;2023-07-13T15:35:05;25.40;99.90
17813;DHT22;9030;50.792;8.320;2023-07-13T15:37:32;25.20;99.90
17813;DHT22;9030;50.792;8.320;2023-07-13T15:39:58;24.70;99.90
17813;DHT22;9030;50.792;8.320;2023-07-13T15:42:25;25.40;99.90
17813;DHT22;9030;50.792;8.320;2023-07-13T15:44:51;25.70;99.90
17813;DHT22;9030;50.792;8.320;2023-07-13T15:47:19;25.30;99.90
17813;DHT22;9030;50.792;8.320;2023-07-13T15:49:46;24.50;99.90
17813;DHT22;9030;50.792;8.320;2023-07-13T15:52:17;24.30;99.90
17813;DHT22;9030;50.792;8.320;2023-07-13T15:54:45;24.70;99.90
17813;DHT22;9030;50.792;8.320;2023-07-13T15:57:12;24.50;99.90
17813;DHT22;9030;50.792;8.320;2023-07-13T15:59:39;25.00;99.90
17813;DHT22;9030;50.792;8.320;2023-07-13T16:02:12;25.00;99.90
17813;DHT22;9030;50.792;8.320;2023-07-13T16:04:41;25.20;99.90
17813;DHT22;9030;50.792;8.320;2023-07-13T16:07:09;25.10;99.90
17813;DHT22;9030;50.792;8.320;2023-07-13T16:09:37;25.30;99.90
17813;DHT22;9030;50.792;8.320;2023-07-13T16:12:09;25.20;99.90
17813;DHT22;9030;50.792;8.320;2023-07-13T16:14:37;24.90;99.90
17813;DHT22;9030;50.792;8.320;2023-07-13T16:17:04;24.20;99.90
17813;DHT22;9030;50.792;8.320;2023-07-13T16:19:31;23.40;99.90
17813;DHT22;9030;50.792;8.320;2023-07-13T16:22:00;23.70;99.90
17813;DHT22;9030;50.792;8.320;2023-07-13T16:24:30;23.60;99.90
17813;DHT22;9030;50.792;8.320;2023-07-13T16:26:58;23.60;99.90
17813;DHT22;9030;50.792;8.320;2023-07-13T16:29:30;23.90;99.90
17813;DHT22;9030;50.792;8.320;2023-07-13T16:31:58;24.20;99.90
17813;DHT22;9030;50.792;8.320;2023-07-13T16:34:26;24.40;99.90
17813;DHT22;9030;50.792;8.320;2023-07-13T16:36:53;24.40;99.90